createdAt,value
2017-12-24T00:02:16.106Z,73.70
2017-12-24T00:04:43.624Z,73.40
2017-12-24T00:07:11.125Z,73.40
2017-12-24T00:09:38.623Z,73.40
2017-12-24T00:12:06.121Z,73.50
2017-12-24T00:14:34.383Z,73.80
2017-12-24T00:17:02.655Z,74.20
2017-12-24T00:19:30.151Z,74.10
2017-12-24T00:21:57.652Z,73.70
2017-12-24T00:24:25.348Z,73.80
2017-12-24T00:26:53.606Z,73.90
2017-12-24T00:29:21.120Z,73.90
2017-12-24T00:31:48.619Z,75.20
2017-12-24T00:34:16.111Z,74.60
2017-12-24T00:36:43.618Z,74.70
2017-12-24T00:39:11.119Z,74.80
2017-12-24T00:41:39.494Z,74.90
2017-12-24T00:44:07.763Z,74.70
2017-12-24T00:46:36.023Z,74.70
2017-12-24T00:49:03.532Z,74.70
2017-12-24T00:51:31.163Z,74.70
2017-12-24T00:53:59.420Z,75.00
2017-12-24T00:56:26.915Z,74.10
2017-12-24T00:58:55.130Z,74.20
2017-12-24T01:01:22.839Z,74.10
2017-12-24T01:03:51.098Z,74.10
2017-12-24T01:06:18.587Z,74.10
2017-12-24T01:08:46.098Z,74.10
2017-12-24T01:11:13.583Z,73.90
2017-12-24T01:13:41.893Z,74.00
2017-12-24T01:16:09.387Z,74.00
2017-12-24T01:18:36.883Z,74.10
2017-12-24T01:21:05.186Z,73.90
2017-12-24T01:23:32.682Z,73.80
2017-12-24T01:26:00.180Z,74.10
2017-12-24T01:28:28.437Z,74.20
2017-12-24T01:30:56.719Z,74.50
2017-12-24T01:33:25.103Z,74.60
2017-12-24T01:35:53.366Z,74.50
2017-12-24T01:38:20.875Z,74.50
2017-12-24T01:40:48.363Z,74.50
2017-12-24T01:43:15.891Z,74.50
2017-12-24T01:45:43.423Z,74.60
2017-12-24T01:48:11.695Z,74.30
2017-12-24T01:50:39.966Z,74.30
2017-12-24T01:53:08.342Z,74.50
2017-12-24T01:55:36.607Z,74.40
2017-12-24T01:58:04.115Z,74.30
2017-12-24T02:00:31.603Z,74.10
2017-12-24T02:02:59.094Z,74.10
2017-12-24T02:05:27.347Z,74.10
2017-12-24T02:07:54.883Z,74.10
2017-12-24T02:10:22.390Z,74.00
2017-12-24T02:12:50.650Z,74.40
2017-12-24T02:15:18.160Z,74.40
2017-12-24T02:17:45.795Z,75.30
2017-12-24T02:20:14.056Z,74.40
2017-12-24T02:22:42.316Z,74.30
2017-12-24T02:25:09.820Z,74.30
2017-12-24T02:27:37.315Z,74.40
2017-12-24T02:30:04.816Z,74.00
2017-12-24T02:32:33.067Z,74.40
2017-12-24T02:35:00.557Z,74.30
2017-12-24T02:37:28.825Z,74.30
2017-12-24T02:39:57.301Z,74.30
2017-12-24T02:42:25.556Z,74.60
2017-12-24T02:44:53.043Z,74.60
2017-12-24T02:47:21.299Z,74.30
2017-12-24T02:49:48.790Z,74.30
2017-12-24T02:52:16.304Z,74.10
2017-12-24T02:54:43.799Z,74.00
2017-12-24T02:57:11.291Z,74.40
2017-12-24T02:59:38.795Z,74.80
2017-12-24T03:02:07.054Z,74.70
2017-12-24T03:04:34.597Z,74.70
2017-12-24T03:07:02.102Z,74.50
2017-12-24T03:09:30.359Z,74.90
2017-12-24T03:11:57.850Z,74.90
2017-12-24T03:14:25.355Z,74.70
2017-12-24T03:16:52.854Z,74.30
2017-12-24T03:19:21.119Z,74.30
2017-12-24T03:21:49.388Z,74.10
2017-12-24T03:24:16.886Z,74.10
2017-12-24T03:26:44.371Z,73.80
2017-12-24T03:29:11.917Z,74.10
2017-12-24T03:31:39.411Z,74.30
2017-12-24T03:34:06.922Z,74.10
2017-12-24T03:36:34.415Z,74.10
2017-12-24T03:39:01.907Z,74.10
2017-12-24T03:41:30.190Z,74.50
2017-12-24T03:43:57.708Z,74.40
2017-12-24T03:46:25.199Z,74.60
2017-12-24T03:48:53.451Z,74.60
2017-12-24T03:51:21.139Z,74.50
2017-12-24T03:53:49.419Z,74.10
2017-12-24T03:56:17.678Z,74.30
2017-12-24T03:58:45.946Z,74.40
2017-12-24T04:01:13.452Z,74.40
2017-12-24T04:03:40.939Z,74.40
2017-12-24T04:06:08.439Z,74.30
2017-12-24T04:08:36.707Z,74.40
2017-12-24T04:11:04.207Z,74.40
2017-12-24T04:13:31.703Z,74.30
2017-12-24T04:15:59.203Z,74.00
2017-12-24T04:18:27.475Z,73.80
2017-12-24T04:20:55.739Z,74.10
2017-12-24T04:23:23.995Z,73.90
2017-12-24T04:25:51.683Z,73.90
2017-12-24T04:28:20.056Z,74.00
2017-12-24T04:30:48.316Z,74.10
2017-12-24T04:33:15.811Z,74.00
2017-12-24T04:35:43.319Z,74.00
2017-12-24T04:38:10.819Z,74.00
2017-12-24T04:40:39.084Z,74.30
2017-12-24T04:43:07.342Z,74.10
2017-12-24T04:45:34.835Z,74.00
2017-12-24T04:48:02.377Z,73.90
2017-12-24T04:50:30.650Z,74.30
2017-12-24T04:52:58.911Z,74.30
2017-12-24T04:55:27.918Z,73.90
2017-12-24T04:57:56.179Z,73.70
2017-12-24T05:00:23.695Z,73.60
2017-12-24T05:02:51.191Z,73.60
2017-12-24T05:05:18.695Z,73.80
2017-12-24T05:07:46.187Z,73.80
2017-12-24T05:10:13.695Z,73.80
2017-12-24T05:12:42.148Z,73.50
2017-12-24T05:15:09.642Z,73.50
2017-12-24T05:17:37.184Z,73.60
2017-12-24T05:20:05.467Z,73.90
2017-12-24T05:22:33.723Z,73.80
2017-12-24T05:25:01.219Z,73.80
2017-12-24T05:27:28.723Z,73.80
2017-12-24T05:29:56.227Z,73.70
2017-12-24T05:32:24.498Z,73.50
2017-12-24T05:34:52.975Z,73.50
2017-12-24T05:37:21.243Z,73.40
2017-12-24T05:39:49.507Z,73.50
2017-12-24T05:42:17.195Z,73.50
2017-12-24T05:44:45.455Z,73.50
2017-12-24T05:47:12.957Z,73.50
2017-12-24T05:49:40.451Z,73.60
2017-12-24T05:52:08.055Z,73.40
2017-12-24T05:54:35.560Z,73.50
2017-12-24T05:57:03.071Z,73.30
2017-12-24T05:59:31.331Z,73.40
2017-12-24T06:01:59.591Z,73.30
2017-12-24T06:04:27.134Z,73.30
2017-12-24T06:06:54.903Z,73.80
2017-12-24T06:09:22.395Z,73.70
2017-12-24T06:11:49.923Z,73.40
2017-12-24T06:14:17.436Z,73.30
2017-12-24T06:16:44.931Z,74.00
2017-12-24T06:19:12.439Z,73.10
2017-12-24T06:21:39.947Z,73.20
2017-12-24T06:24:07.449Z,73.20
2017-12-24T06:26:35.819Z,73.30
2017-12-24T06:29:04.087Z,73.10
2017-12-24T06:31:31.664Z,73.10
2017-12-24T06:33:59.940Z,73.50
2017-12-24T06:36:28.202Z,73.40
2017-12-24T06:38:55.755Z,73.40
2017-12-24T06:41:23.263Z,73.40
2017-12-24T06:43:50.779Z,73.20
2017-12-24T06:46:19.046Z,73.30
2017-12-24T06:48:46.583Z,73.30
2017-12-24T06:51:14.200Z,72.90
2017-12-24T06:53:41.698Z,73.00
2017-12-24T06:56:09.196Z,73.00
2017-12-24T06:58:37.459Z,73.30
2017-12-24T07:01:04.976Z,73.30
2017-12-24T07:03:32.475Z,73.00
2017-12-24T07:06:00.159Z,72.90
2017-12-24T07:08:28.440Z,73.10
2017-12-24T07:10:56.707Z,73.10
2017-12-24T07:13:24.996Z,73.20
2017-12-24T07:15:52.504Z,73.10
2017-12-24T07:18:20.008Z,73.00
2017-12-24T07:20:48.275Z,72.80
2017-12-24T07:23:16.554Z,72.50
2017-12-24T07:25:44.819Z,72.90
2017-12-24T07:28:12.312Z,72.80
2017-12-24T07:30:39.812Z,73.40
2017-12-24T07:33:07.334Z,72.70
2017-12-24T07:35:34.851Z,73.20
2017-12-24T07:38:02.361Z,73.80
2017-12-24T07:40:29.875Z,72.60
2017-12-24T07:42:58.147Z,72.80
2017-12-24T07:45:25.640Z,72.80
2017-12-24T07:47:53.139Z,72.40
2017-12-24T07:50:20.631Z,72.70
2017-12-24T07:52:48.895Z,72.30
2017-12-24T07:55:16.390Z,72.30
2017-12-24T07:57:44.040Z,72.60
2017-12-24T08:00:11.578Z,71.90
2017-12-24T08:02:39.854Z,72.20
2017-12-24T08:05:08.119Z,72.30
2017-12-24T08:07:35.807Z,72.20
2017-12-24T08:10:04.071Z,71.70
2017-12-24T08:12:32.331Z,71.90
2017-12-24T08:14:59.826Z,71.80
2017-12-24T08:17:27.339Z,71.50
2017-12-24T08:19:54.846Z,71.90
2017-12-24T08:22:22.347Z,71.90
2017-12-24T08:24:49.856Z,72.20
2017-12-24T08:27:18.127Z,72.60
2017-12-24T08:29:46.407Z,73.10
2017-12-24T08:32:14.675Z,73.20
2017-12-24T08:34:42.947Z,73.10
2017-12-24T08:37:11.212Z,72.70
2017-12-24T08:39:38.726Z,72.70
2017-12-24T08:42:06.278Z,73.30
2017-12-24T08:44:33.759Z,73.30
2017-12-24T08:47:01.271Z,73.30
2017-12-24T08:49:28.788Z,72.90
2017-12-24T08:51:56.278Z,73.20
2017-12-24T08:54:24.546Z,73.00
2017-12-24T08:56:52.815Z,73.10
2017-12-24T08:59:20.316Z,73.10
2017-12-24T09:01:47.815Z,72.70
2017-12-24T09:04:15.335Z,72.80
2017-12-24T09:06:42.849Z,72.40
2017-12-24T09:09:10.345Z,72.80
2017-12-24T09:11:37.847Z,72.70
2017-12-24T09:14:05.347Z,73.10
2017-12-24T09:16:33.615Z,72.90
2017-12-24T09:19:01.895Z,72.80
2017-12-24T09:21:30.154Z,72.40
2017-12-24T09:23:57.674Z,72.30
2017-12-24T09:26:25.169Z,72.00
2017-12-24T09:28:52.679Z,72.10
2017-12-24T09:31:20.187Z,72.20
2017-12-24T09:33:47.688Z,72.20
2017-12-24T09:36:15.226Z,71.30
2017-12-24T09:38:43.503Z,71.60
2017-12-24T09:41:11.762Z,71.50
2017-12-24T09:43:40.143Z,71.30
2017-12-24T09:46:08.524Z,71.50
2017-12-24T09:48:36.784Z,71.30
2017-12-24T09:51:04.298Z,71.30
2017-12-24T09:53:31.799Z,71.20
2017-12-24T09:55:59.301Z,71.70
2017-12-24T09:58:26.798Z,71.70
2017-12-24T10:00:54.306Z,72.10
2017-12-24T10:03:21.803Z,72.00
2017-12-24T10:05:49.315Z,71.90
2017-12-24T10:08:17.616Z,71.20
2017-12-24T10:10:45.115Z,71.10
2017-12-24T10:13:12.610Z,71.40
2017-12-24T10:15:40.887Z,71.50
2017-12-24T10:18:09.197Z,71.30
2017-12-24T10:20:36.707Z,71.30
2017-12-24T10:23:04.976Z,70.90
2017-12-24T10:25:32.478Z,70.70
2017-12-24T10:27:59.976Z,71.10
2017-12-24T10:30:27.466Z,70.50
2017-12-24T10:32:55.743Z,70.80
2017-12-24T10:35:24.008Z,70.50
2017-12-24T10:37:51.500Z,70.40
2017-12-24T10:40:19.039Z,70.40
2017-12-24T10:42:47.299Z,70.80
2017-12-24T10:45:14.808Z,70.80
2017-12-24T10:47:42.306Z,70.40
2017-12-24T10:50:09.804Z,70.30
2017-12-24T10:52:37.347Z,69.80
2017-12-24T10:55:05.615Z,69.80
2017-12-24T10:57:33.899Z,69.60
2017-12-24T11:00:02.160Z,69.50
2017-12-24T11:02:29.657Z,69.50
2017-12-24T11:04:57.295Z,69.30
2017-12-24T11:07:25.560Z,70.00
2017-12-24T11:09:53.830Z,69.80
2017-12-24T11:12:21.326Z,69.80
2017-12-24T11:14:48.867Z,69.70
2017-12-24T11:17:17.343Z,69.00
2017-12-24T11:19:45.619Z,68.20
2017-12-24T11:22:13.893Z,68.10
2017-12-24T11:24:42.159Z,67.60
2017-12-24T11:27:09.671Z,67.50
2017-12-24T11:29:37.171Z,68.70
2017-12-24T11:32:04.668Z,67.80
2017-12-24T11:34:32.927Z,66.70
2017-12-24T11:37:01.204Z,66.20
2017-12-24T11:39:29.490Z,65.80
2017-12-24T11:41:56.987Z,65.70
2017-12-24T11:44:24.494Z,65.50
2017-12-24T11:46:52.766Z,64.70
2017-12-24T11:49:21.030Z,65.20
2017-12-24T11:51:48.523Z,65.10
2017-12-24T11:54:16.031Z,66.00
2017-12-24T11:56:43.531Z,65.70
2017-12-24T11:59:11.799Z,63.90
2017-12-24T12:01:40.103Z,64.10
2017-12-24T12:04:07.596Z,64.10
2017-12-24T12:06:35.099Z,63.40
2017-12-24T12:09:03.380Z,62.70
2017-12-24T12:11:30.891Z,62.70
2017-12-24T12:13:58.392Z,61.30
2017-12-24T12:16:26.700Z,59.70
2017-12-24T12:18:54.775Z,59.70
2017-12-24T12:21:22.292Z,60.40
2017-12-24T12:23:50.572Z,60.30
2017-12-24T12:26:18.859Z,59.30
2017-12-24T12:28:46.507Z,59.30
2017-12-24T12:31:14.986Z,59.30
2017-12-24T12:33:43.266Z,58.90
2017-12-24T12:36:11.541Z,58.60
2017-12-24T12:38:39.807Z,58.10
2017-12-24T12:41:08.110Z,58.20
2017-12-24T12:43:36.363Z,57.30
2017-12-24T12:46:04.643Z,57.30
2017-12-24T12:48:33.034Z,56.40
2017-12-24T12:51:00.552Z,56.30
2017-12-24T12:53:28.081Z,54.10
2017-12-24T12:55:55.631Z,53.00
2017-12-24T12:58:23.142Z,51.00
2017-12-24T13:00:50.658Z,48.90
2017-12-24T13:03:18.158Z,46.80
2017-12-24T13:05:45.683Z,45.30
2017-12-24T13:08:13.195Z,44.60
2017-12-24T13:10:41.459Z,44.20
2017-12-24T13:13:09.743Z,42.60
2017-12-24T13:15:38.023Z,42.10
2017-12-24T13:18:06.305Z,42.50
2017-12-24T13:20:34.571Z,41.30
2017-12-24T13:23:02.899Z,41.20
2017-12-24T13:25:30.435Z,41.00
2017-12-24T13:27:57.983Z,40.90
2017-12-24T13:30:25.491Z,42.60
2017-12-24T13:32:52.995Z,43.20
2017-12-24T13:35:21.283Z,42.20
2017-12-24T13:37:48.786Z,42.20
2017-12-24T13:40:16.296Z,43.00
2017-12-24T13:42:43.807Z,43.00
2017-12-24T13:45:11.331Z,44.50
2017-12-24T13:47:38.855Z,46.30
2017-12-24T13:50:07.131Z,51.60
2017-12-24T13:52:35.399Z,54.20
2017-12-24T13:55:03.671Z,56.10
2017-12-24T13:57:31.181Z,56.10
2017-12-24T13:59:58.679Z,58.30
2017-12-24T14:02:26.175Z,59.40
2017-12-24T14:04:53.687Z,60.30
2017-12-24T14:07:21.227Z,61.60
2017-12-24T14:09:48.723Z,62.70
2017-12-24T14:12:16.228Z,63.10
2017-12-24T14:14:43.731Z,64.30
2017-12-24T14:17:11.272Z,63.90
2017-12-24T14:19:38.787Z,64.40
2017-12-24T14:22:06.285Z,65.30
2017-12-24T14:24:33.899Z,65.50
2017-12-24T14:27:02.275Z,66.30
2017-12-24T14:29:30.531Z,66.20
2017-12-24T14:31:58.810Z,66.40
2017-12-24T14:34:27.095Z,66.50
2017-12-24T14:36:55.355Z,66.50
2017-12-24T14:39:22.853Z,66.40
2017-12-24T14:41:50.343Z,66.70
2017-12-24T14:44:17.850Z,67.10
2017-12-24T14:46:46.108Z,68.20
2017-12-24T14:49:13.611Z,68.10
2017-12-24T14:51:41.115Z,68.40
2017-12-24T14:54:08.621Z,68.40
2017-12-24T14:56:36.121Z,68.60
2017-12-24T14:59:03.611Z,68.30
2017-12-24T15:01:31.880Z,68.00
2017-12-24T15:04:00.159Z,68.70
2017-12-24T15:06:28.420Z,68.60
2017-12-24T15:08:56.108Z,68.60
2017-12-24T15:11:24.582Z,68.10
2017-12-24T15:13:52.838Z,68.30
2017-12-24T15:16:21.855Z,68.20
2017-12-24T15:18:50.115Z,68.60
2017-12-24T15:21:17.636Z,68.60
2017-12-24T15:23:45.135Z,69.60
2017-12-24T15:26:12.650Z,69.00
2017-12-24T15:28:40.159Z,69.30
2017-12-24T15:31:08.420Z,69.30
2017-12-24T15:33:35.916Z,69.30
2017-12-24T15:36:03.432Z,69.60
2017-12-24T15:38:30.943Z,70.00
2017-12-24T15:40:58.445Z,70.40
2017-12-24T15:43:25.945Z,70.80
2017-12-24T15:45:54.419Z,71.40
2017-12-24T15:48:22.693Z,71.20
2017-12-24T15:50:50.970Z,71.40
2017-12-24T15:53:19.236Z,71.10
2017-12-24T15:55:47.502Z,71.60
2017-12-24T15:58:15.012Z,71.60
2017-12-24T16:00:42.507Z,71.70
2017-12-24T16:03:10.007Z,71.70
2017-12-24T16:05:37.507Z,71.50
2017-12-24T16:08:05.231Z,71.90
2017-12-24T16:10:32.880Z,72.30
2017-12-24T16:13:01.142Z,72.80
2017-12-24T16:15:28.643Z,72.80
2017-12-24T16:17:56.151Z,72.40
2017-12-24T16:20:23.667Z,72.20
2017-12-24T16:22:51.171Z,71.90
2017-12-24T16:25:18.663Z,72.10
2017-12-24T16:27:46.159Z,72.10
2017-12-24T16:30:13.663Z,72.00
2017-12-24T16:32:41.969Z,72.50
2017-12-24T16:35:09.463Z,72.50
2017-12-24T16:37:36.960Z,72.40
2017-12-24T16:40:05.235Z,72.80
2017-12-24T16:42:33.612Z,72.80
2017-12-24T16:45:01.872Z,73.80
2017-12-24T16:47:29.398Z,73.00
2017-12-24T16:49:56.895Z,73.40
2017-12-24T16:52:25.178Z,73.20
2017-12-24T16:54:53.481Z,73.10
2017-12-24T16:57:20.980Z,73.10
2017-12-24T16:59:48.488Z,73.10
2017-12-24T17:02:15.983Z,72.90
2017-12-24T17:04:43.499Z,72.90
2017-12-24T17:07:11.011Z,72.80
2017-12-24T17:09:38.507Z,72.70
2017-12-24T17:12:06.771Z,73.20
2017-12-24T17:14:35.047Z,73.40
2017-12-24T17:17:03.361Z,73.40
2017-12-24T17:19:30.859Z,73.40
2017-12-24T17:21:58.359Z,73.20
2017-12-24T17:24:26.646Z,73.60
2017-12-24T17:26:54.159Z,73.60
2017-12-24T17:29:21.656Z,73.30
2017-12-24T17:31:49.176Z,73.10
2017-12-24T17:34:16.675Z,73.50
2017-12-24T17:36:44.959Z,73.90
2017-12-24T17:39:12.456Z,73.90
2017-12-24T17:41:39.959Z,73.90
2017-12-24T17:44:08.215Z,73.80
2017-12-24T17:46:35.717Z,73.80
2017-12-24T17:49:03.223Z,73.70
2017-12-24T17:51:30.732Z,74.00
2017-12-24T17:53:58.230Z,74.30
2017-12-24T17:56:25.727Z,74.40
2017-12-24T17:58:53.994Z,74.10
2017-12-24T18:01:22.271Z,74.20
2017-12-24T18:03:50.536Z,73.90
2017-12-24T18:06:18.047Z,73.80
2017-12-24T18:08:45.543Z,74.00
2017-12-24T18:11:13.039Z,73.80
2017-12-24T18:13:40.555Z,73.70
2017-12-24T18:16:08.067Z,73.80
2017-12-24T18:18:35.570Z,73.70
2017-12-24T18:21:03.087Z,73.80
2017-12-24T18:23:30.578Z,73.90
2017-12-24T18:25:58.117Z,74.20
2017-12-24T18:28:25.611Z,74.30
2017-12-24T18:30:53.111Z,74.20
2017-12-24T18:33:20.603Z,74.30
2017-12-24T18:35:48.314Z,74.10
2017-12-24T18:38:16.795Z,74.30
2017-12-24T18:40:45.080Z,74.30
2017-12-24T18:43:13.359Z,74.50
2017-12-24T18:45:41.003Z,74.50
2017-12-24T18:48:09.791Z,74.80
2017-12-24T18:50:38.059Z,75.00
2017-12-24T18:53:05.559Z,75.00
2017-12-24T18:55:33.051Z,75.60
2017-12-24T18:58:00.563Z,75.80
2017-12-24T19:00:28.080Z,74.90
2017-12-24T19:02:55.770Z,74.50
2017-12-24T19:05:24.050Z,74.50
2017-12-24T19:07:52.315Z,74.80
2017-12-24T19:10:20.575Z,74.80
2017-12-24T19:12:48.852Z,74.80
2017-12-24T19:15:16.343Z,74.80
2017-12-24T19:17:43.844Z,75.20
2017-12-24T19:20:11.340Z,75.10
2017-12-24T19:22:39.614Z,75.90
2017-12-24T19:25:08.103Z,76.00
2017-12-24T19:27:36.367Z,76.00
2017-12-24T19:30:03.883Z,75.90
2017-12-24T19:32:31.393Z,75.40
2017-12-24T19:34:59.667Z,76.30
2017-12-24T19:37:28.151Z,76.40
2017-12-24T19:39:56.419Z,76.10
2017-12-24T19:42:23.992Z,76.10
2017-12-24T19:44:51.791Z,76.30
2017-12-24T19:47:19.288Z,76.60
2017-12-24T19:49:46.802Z,77.00
2017-12-24T19:52:14.299Z,76.10
2017-12-24T19:54:41.812Z,76.30
2017-12-24T19:57:09.307Z,76.50
2017-12-24T19:59:36.802Z,76.60
2017-12-24T20:02:05.066Z,76.60
2017-12-24T20:04:32.568Z,76.50
2017-12-24T20:07:00.063Z,77.50
2017-12-24T20:09:27.580Z,76.90
2017-12-24T20:11:55.095Z,77.10
2017-12-24T20:14:22.593Z,77.20
2017-12-24T20:16:50.092Z,77.40
2017-12-24T20:19:17.602Z,77.40
2017-12-24T20:21:45.099Z,77.40
2017-12-24T20:24:12.807Z,77.50
2017-12-24T20:26:41.075Z,77.30
2017-12-24T20:29:08.571Z,77.20
2017-12-24T20:31:36.068Z,77.20
2017-12-24T20:34:03.574Z,77.40
2017-12-24T20:36:31.091Z,77.30
2017-12-24T20:38:58.611Z,77.50
2017-12-24T20:41:26.119Z,77.40
2017-12-24T20:43:53.622Z,77.30
2017-12-24T20:46:21.123Z,77.30
2017-12-24T20:48:48.638Z,77.50
2017-12-24T20:51:16.135Z,77.40
2017-12-24T20:53:43.639Z,77.50
2017-12-24T20:56:11.904Z,77.20
2017-12-24T20:58:40.168Z,77.40
2017-12-24T21:01:07.685Z,77.30
2017-12-24T21:03:35.198Z,77.30
2017-12-24T21:06:03.480Z,77.30
2017-12-24T21:08:31.783Z,77.50
2017-12-24T21:10:59.299Z,77.50
2017-12-24T21:13:27.612Z,77.70
2017-12-24T21:15:55.130Z,77.50
2017-12-24T21:18:22.629Z,77.60
2017-12-24T21:20:50.155Z,77.40
2017-12-24T21:23:17.723Z,77.30
2017-12-24T21:25:45.983Z,77.30
2017-12-24T21:28:14.260Z,77.20
2017-12-24T21:30:41.751Z,77.10
2017-12-24T21:33:09.263Z,77.40
2017-12-24T21:35:36.758Z,77.60
2017-12-24T21:38:05.021Z,77.90
2017-12-24T21:40:33.281Z,77.90
2017-12-24T21:43:00.890Z,77.90
2017-12-24T21:45:28.403Z,77.70
2017-12-24T21:47:55.901Z,77.70
2017-12-24T21:50:23.395Z,78.10
2017-12-24T21:52:51.303Z,78.30
2017-12-24T21:55:19.573Z,78.00
2017-12-24T21:57:47.891Z,78.10
2017-12-24T22:00:15.406Z,78.10
2017-12-24T22:02:43.707Z,77.60
2017-12-24T22:05:11.211Z,77.60
2017-12-24T22:07:38.714Z,77.80
2017-12-24T22:10:06.991Z,77.60
2017-12-24T22:12:35.246Z,77.50
2017-12-24T22:15:02.749Z,77.40
2017-12-24T22:17:30.247Z,77.70
2017-12-24T22:19:57.755Z,77.80
2017-12-24T22:22:25.274Z,77.90
2017-12-24T22:24:52.786Z,77.70
2017-12-24T22:27:20.291Z,77.90
2017-12-24T22:29:47.807Z,78.00
2017-12-24T22:32:15.439Z,77.80
2017-12-24T22:34:43.699Z,78.10
2017-12-24T22:37:11.970Z,78.00
2017-12-24T22:39:39.479Z,78.00
2017-12-24T22:42:06.978Z,78.00
2017-12-24T22:44:34.663Z,77.90
2017-12-24T22:47:02.927Z,77.90
2017-12-24T22:49:31.206Z,78.10
2017-12-24T22:51:59.484Z,78.30
2017-12-24T22:54:27.966Z,77.90
2017-12-24T22:56:56.252Z,77.80
2017-12-24T22:59:24.515Z,78.10
2017-12-24T23:01:52.804Z,77.80
2017-12-24T23:04:21.291Z,78.00
2017-12-24T23:06:49.551Z,78.00
2017-12-24T23:09:17.845Z,78.20
2017-12-24T23:11:46.107Z,78.30
2017-12-24T23:14:14.387Z,78.50
2017-12-24T23:16:42.653Z,78.60
2017-12-24T23:19:10.167Z,78.60
2017-12-24T23:21:37.664Z,78.50
2017-12-24T23:24:05.155Z,78.60
2017-12-24T23:26:32.662Z,78.60
2017-12-24T23:29:00.206Z,78.50
2017-12-24T23:31:27.698Z,78.40
2017-12-24T23:33:55.199Z,78.70
2017-12-24T23:36:22.700Z,79.10
2017-12-24T23:38:50.199Z,78.80
2017-12-24T23:41:18.459Z,79.00
2017-12-24T23:43:46.767Z,79.10
2017-12-24T23:46:14.276Z,79.10
2017-12-24T23:48:41.770Z,79.30
2017-12-24T23:51:09.282Z,79.10
2017-12-24T23:53:36.778Z,79.40
2017-12-24T23:56:04.294Z,79.10
2017-12-24T23:58:31.796Z,79.40
